Fountain Green, UT

10:49 PM MDT on September 01, 2015 (GMT -0600)
Mountain Dell Scout Ranch | | Change Station
CLOSE
Current Station
Personal Weather Station
Location: Mount Pleasant, UT
Elevation: 7480 ft
Nearby Weather Stations

Elev 7480 ft 39.50 °N, 111.39 °W | Updated 2 seconds ago

Partly Cloudy
Partly Cloudy
66.4 °F
Feels Like 66.4 °F
N
7.0
Wind Variable Wind from SE
Gusts 8.0 mph

Today
High -- | Low -- °F
--% Chance of Precip.
Yesterday
High -- | Low -- °F
Precip. -- in
6:54 AM 7:57 PM
Waning Gibbous, 83% visible
Pressure 29.97 in
Visibility 10.0 miles
Clouds Clear
Dew Point 39 °F
Humidity 36%
Rainfall 0.00 in
Snow Depth Not available.
UV 0 out of 12
Pollen 9.00 out of 12
Air Quality Not available.
Flu Activity Not available.
METAR KPUC 020353Z AUTO 05007KT 10SM CLR 17/08 A3016 RMK AO2 SLP149 T01670078
Pressure 29.97 in
Visibility 10.0 miles
Clouds Clear
Dew Point 39 °F
Humidity 36%
Rainfall 0.00 in
Snow Depth Not available.
UV 0 out of 12
Pollen 9.00 out of 12
Air Quality Not available.
Flu Activity Not available.
METAR KPUC 020353Z AUTO 05007KT 10SM CLR 17/08 A3016 RMK AO2 SLP149 T01670078

10-Day Weather Forecast

×

Almanac

Astronomy

Sep. 01, 2015 Rise Set
Actual Time
Civil Twilight
Nautical Twilight
Astronomical Twilight
Moon
Length of Visible Light
Length of Day
Tomorrow will be .
, % of the Moon is Illuminated

Today's Extremes

State Highs State Lows

Community

WunderPhotos

Upload Photos

1,851,704 photos uploaded!

WunderBlogs® & News

Nearby

Air Quality

  Air Quality AQ Index Pollutant
Not available.

Snow Depth

Station Depth Elevation

Earthquake Activity

City Distance Mag. Time & Date
Minimum magnitude displayed is 2.5.

Coastal Water Temperatures

Place Temperature

Stations

Nearby Weather Stations

Station Location Temp. Windchill Dew Point Humidity Wind Precip. Elev Updated Type